Flugplatz Munich International

Bericht für EDDM

vom 27.09. um 00:50 UTC

Wind 13 kt aus 250°

Sichtweite 10 km oder mehr

aufgelockert bewölkt in 2200 ft

Temperatur 6.0°C

Taupunkt 4.0°C

Luftfeuchtigkeit 87%

Luftdruck 1002 hPa

keine wesentliche Wetteränderung innerhalb den nächsten 2 Stunden zu erwarten

EDDM 270050Z 25013KT 9999 SCT022 06/04 Q1002 NOSIG

Prognose für EDDM

vom 26.09. um 23:00 UTC

Zwischen 00:00 UTC und 02:00 UTC

Wind 15 kt aus 240° in Böen 25 kt

Sichtweite 10 km oder mehr

aufgebrochene Bewölkung in 2500 ft


Zwischen 02:00 und 04:00 UTC übergehend zu

Wind 8 kt aus 220°

Sichtweite 10 km oder mehr

aufgebrochene Bewölkung in 2500 ft


Zwischen 11:00 UTC und 18:00 UTC

Wind 6 kt aus 100°

Sichtweite 10 km oder mehr

gering bewölkt in 4000 ft


Zwischen 18:00 und 20:00 UTC übergehend zu

variable Windrichtung mit 3 kt

Sichtweite 10 km oder mehr

gering bewölkt in 4000 ft

TAF EDDM 262300Z 2700/2806 24015G25KT 9999 BKN025 BECMG 2702/2704 22008KT FM271100 10006KT 9999 FEW040 BECMG 2718/2720 VRB03KT
Impressum